Terminal Aerodrome Forecast
Issued by NWS Atlanta, GA

Home | Current Version | Previous Version | Text Only | Print | Product List | Glossary On
Versions: 1 2 3 4 5 6 7 8 9 10 11 12 13 14 15 16 17 18 19 20 21 22 23 24 25 26 27 28 29 30
000
FTUS42 KFFC 301341 AAA
TAFAHN
TAF AMD
KAHN 301341Z 3014/0112 24008KT P6SM BKN040
     FM301600 24012G18KT P6SM VCSH BKN050
      TEMPO 3018/3022 VRB15G25KT 4SM TSRA BKN035CB
     FM010000 27008KT P6SM BKN060
     FM010600 26006KT 4SM BR SCT010 SCT060=

USA.gov is the U.S. government's official web portal to all federal, state and local government web resources and services.